createdAt,value
2018-09-29T00:01:15.155Z,102318.72
2018-09-29T00:03:43.930Z,102316.74
2018-09-29T00:06:20.440Z,102314.41
2018-09-29T00:08:48.740Z,102316.04
2018-09-29T00:11:17.053Z,102316.04
2018-09-29T00:13:46.376Z,102317.13
2018-09-29T00:16:14.974Z,102326.87
2018-09-29T00:18:43.245Z,102330.70
2018-09-29T00:21:11.547Z,102334.87
2018-09-29T00:23:39.895Z,102334.93
2018-09-29T00:26:08.414Z,102337.48
2018-09-29T00:28:36.791Z,102342.59
2018-09-29T00:31:05.825Z,102337.48
2018-09-29T00:33:34.689Z,102339.06
2018-09-29T00:36:03.765Z,102346.24
2018-09-29T00:38:32.075Z,102344.09
2018-09-29T00:41:00.389Z,102342.37
2018-09-29T00:43:28.836Z,102344.09
2018-09-29T00:45:57.134Z,102350.03
2018-09-29T00:48:25.607Z,102348.71
2018-09-29T00:50:53.913Z,102349.11
2018-09-29T00:53:22.227Z,102350.99
2018-09-29T00:55:51.102Z,102349.59
2018-09-29T00:58:19.578Z,102355.48
2018-09-29T01:00:48.135Z,102350.69
2018-09-29T01:03:16.525Z,102359.46
2018-09-29T01:05:44.874Z,102368.02
2018-09-29T01:08:13.174Z,102363.65
2018-09-29T01:10:42.435Z,102366.66
2018-09-29T01:13:10.927Z,102366.22
2018-09-29T01:15:39.473Z,102368.27
2018-09-29T01:18:08.391Z,102367.22
2018-09-29T01:20:37.619Z,102358.59
2018-09-29T01:23:06.587Z,102360.02
2018-09-29T01:25:34.924Z,102359.64
2018-09-29T01:28:03.243Z,102357.40
2018-09-29T01:30:31.832Z,102354.80
2018-09-29T01:33:00.311Z,102353.59
2018-09-29T01:35:29.282Z,102355.20
2018-09-29T01:37:57.642Z,102355.64
2018-09-29T01:40:26.020Z,102350.56
2018-09-29T01:42:54.855Z,102339.88
2018-09-29T01:45:23.237Z,102355.03
2018-09-29T01:47:51.555Z,102346.55
2018-09-29T01:50:19.923Z,102372.69
2018-09-29T01:52:48.238Z,102367.45
2018-09-29T01:55:16.558Z,102362.69
2018-09-29T01:57:44.847Z,102362.00
2018-09-29T02:00:13.163Z,102371.70
2018-09-29T02:02:41.568Z,102369.97
2018-09-29T02:05:09.987Z,102380.47
2018-09-29T02:07:38.435Z,102382.89
2018-09-29T02:10:07.052Z,102377.16
2018-09-29T02:12:35.499Z,102374.70
2018-09-29T02:15:05.303Z,102376.78
2018-09-29T02:17:34.515Z,102374.59
2018-09-29T02:20:02.761Z,102368.05
2018-09-29T02:22:31.132Z,102370.49
2018-09-29T02:24:59.504Z,102371.02
2018-09-29T02:27:28.257Z,102383.50
2018-09-29T02:29:56.558Z,102375.23
2018-09-29T02:32:24.960Z,102375.76
2018-09-29T02:34:53.263Z,102380.93
2018-09-29T02:37:21.643Z,102386.81
2018-09-29T02:39:49.938Z,102386.96
2018-09-29T02:42:18.327Z,102392.20
2018-09-29T02:44:53.184Z,102386.86
2018-09-29T02:47:21.899Z,102391.47
2018-09-29T02:49:50.183Z,102389.72
2018-09-29T02:52:18.679Z,102394.96
2018-09-29T02:54:47.361Z,102397.75
2018-09-29T02:57:15.766Z,102399.72
2018-09-29T02:59:44.056Z,102401.80
2018-09-29T03:02:12.387Z,102401.55
2018-09-29T03:04:40.797Z,102402.02
2018-09-29T03:07:09.276Z,102404.28
2018-09-29T03:09:37.726Z,102403.58
2018-09-29T03:12:07.082Z,102408.03
2018-09-29T03:14:35.601Z,102408.27
2018-09-29T03:17:04.078Z,102393.86
2018-09-29T03:19:32.489Z,102397.55
2018-09-29T03:22:00.798Z,102407.12
2018-09-29T03:24:29.361Z,102405.45
2018-09-29T03:26:57.740Z,102409.25
2018-09-29T03:29:26.509Z,102407.72
2018-09-29T03:31:55.264Z,102407.58
2018-09-29T03:34:23.949Z,102409.33
2018-09-29T03:36:52.349Z,102413.37
2018-09-29T03:39:20.704Z,102418.78
2018-09-29T03:41:49.210Z,102418.78
2018-09-29T03:44:17.535Z,102424.48
2018-09-29T03:46:46.008Z,102428.91
2018-09-29T03:49:14.378Z,102419.66
2018-09-29T03:51:42.679Z,102423.84
2018-09-29T03:54:11.143Z,102424.73
2018-09-29T03:56:39.451Z,102422.61
2018-09-29T03:59:07.760Z,102421.73
2018-09-29T04:04:32.335Z,102431.20
2018-09-29T04:07:01.184Z,102428.48
2018-09-29T04:09:30.267Z,102435.41
2018-09-29T04:11:59.192Z,102435.70
2018-09-29T04:14:28.061Z,102440.25
2018-09-29T04:16:57.257Z,102438.05
2018-09-29T04:19:26.065Z,102438.28
2018-09-29T04:21:54.880Z,102450.81
2018-09-29T04:24:23.998Z,102457.47
2018-09-29T04:26:52.903Z,102460.27
2018-09-29T04:29:21.672Z,102455.98
2018-09-29T04:31:50.692Z,102461.22
2018-09-29T04:34:19.596Z,102461.64
2018-09-29T04:36:48.385Z,102468.77
2018-09-29T04:39:17.128Z,102466.80
2018-09-29T04:41:45.921Z,102475.37
2018-09-29T04:44:14.765Z,102469.52
2018-09-29T04:46:43.496Z,102465.45
2018-09-29T04:49:12.412Z,102464.53
2018-09-29T04:51:41.318Z,102465.45
2018-09-29T04:54:10.054Z,102465.70
2018-09-29T04:56:38.819Z,102463.89
2018-09-29T04:59:07.767Z,102464.94
2018-09-29T05:01:36.604Z,102468.73
2018-09-29T05:04:05.245Z,102472.49
2018-09-29T05:06:34.016Z,102473.53
2018-09-29T05:09:02.807Z,102473.73
2018-09-29T05:11:31.581Z,102481.05
2018-09-29T05:14:00.457Z,102484.81
2018-09-29T05:16:29.585Z,102483.88
2018-09-29T05:18:58.775Z,102485.84
2018-09-29T05:21:28.695Z,102484.20
2018-09-29T05:23:57.473Z,102492.77
2018-09-29T05:26:26.194Z,102476.44
2018-09-29T05:28:55.183Z,102472.23
2018-09-29T05:31:24.019Z,102474.30
2018-09-29T05:33:53.161Z,102473.87
2018-09-29T05:36:22.340Z,102471.66
2018-09-29T05:38:51.130Z,102472.28
2018-09-29T05:41:20.036Z,102477.28
2018-09-29T05:43:48.834Z,102483.56
2018-09-29T05:46:20.790Z,102490.37
2018-09-29T05:48:50.191Z,102495.45
2018-09-29T05:51:18.874Z,102492.41
2018-09-29T05:53:48.528Z,102490.27
2018-09-29T05:56:18.137Z,102493.91
2018-09-29T05:58:46.954Z,102496.84
2018-09-29T06:01:15.848Z,102496.19
2018-09-29T06:03:44.663Z,102492.41
2018-09-29T06:06:13.567Z,102493.77
2018-09-29T06:08:42.449Z,102500.27
2018-09-29T06:11:11.581Z,102499.02
2018-09-29T06:13:40.438Z,102492.17
2018-09-29T06:16:09.257Z,102500.54
2018-09-29T06:18:38.222Z,102492.13
2018-09-29T06:21:07.338Z,102495.61
2018-09-29T06:23:36.176Z,102500.42
2018-09-29T06:26:04.986Z,102508.61
2018-09-29T06:28:33.668Z,102507.88
2018-09-29T06:31:02.371Z,102511.60
2018-09-29T06:33:31.432Z,102518.05
2018-09-29T06:36:00.768Z,102523.59
2018-09-29T06:38:29.346Z,102526.08
2018-09-29T06:40:58.151Z,102522.28
2018-09-29T06:43:26.878Z,102531.48
2018-09-29T06:45:56.232Z,102542.06
2018-09-29T06:48:24.919Z,102548.67
2018-09-29T06:50:53.709Z,102549.03
2018-09-29T06:53:22.676Z,102551.14
2018-09-29T06:55:52.686Z,102552.05
2018-09-29T06:58:22.497Z,102551.80
2018-09-29T07:00:52.008Z,102555.06
2018-09-29T07:03:21.463Z,102552.03
2018-09-29T07:05:50.993Z,102556.89
2018-09-29T07:08:20.391Z,102552.36
2018-09-29T07:10:49.914Z,102546.30
2018-09-29T07:13:19.355Z,102544.88
2018-09-29T07:15:48.746Z,102544.17
2018-09-29T07:18:18.184Z,102546.40
2018-09-29T07:20:47.800Z,102549.27
2018-09-29T07:23:17.351Z,102548.55
2018-09-29T07:25:46.854Z,102557.54
2018-09-29T07:28:16.219Z,102551.66
2018-09-29T07:30:45.759Z,102551.80
2018-09-29T07:33:15.318Z,102558.45
2018-09-29T07:35:44.777Z,102555.53
2018-09-29T07:38:14.278Z,102567.59
2018-09-29T07:40:43.800Z,102565.16
2018-09-29T07:43:13.378Z,102569.07
2018-09-29T07:45:42.808Z,102556.44
2018-09-29T07:48:12.369Z,102552.64
2018-09-29T07:50:43.822Z,102555.79
2018-09-29T07:53:13.780Z,102558.06
2018-09-29T07:55:43.553Z,102554.19
2018-09-29T07:58:13.170Z,102539.62
2018-09-29T08:00:44.739Z,102548.76
2018-09-29T08:03:15.501Z,102546.33
2018-09-29T08:05:45.617Z,102555.02
2018-09-29T08:08:17.798Z,102543.37
2018-09-29T08:10:47.657Z,102545.75
2018-09-29T08:13:17.644Z,102554.17
2018-09-29T08:15:47.349Z,102555.21
2018-09-29T08:18:17.020Z,102558.58
2018-09-29T08:20:46.654Z,102557.48
2018-09-29T08:23:16.254Z,102553.73
2018-09-29T08:25:46.330Z,102554.66
2018-09-29T08:28:16.037Z,102548.82
2018-09-29T08:30:45.864Z,102551.63
2018-09-29T08:33:15.556Z,102554.38
2018-09-29T08:35:45.735Z,102554.69
2018-09-29T08:38:15.417Z,102553.87
2018-09-29T08:40:44.758Z,102551.95
2018-09-29T08:43:14.288Z,102560.56
2018-09-29T08:45:43.743Z,102551.78
2018-09-29T08:48:13.818Z,102554.11
2018-09-29T08:50:46.124Z,102556.88
2018-09-29T08:53:16.899Z,102535.23
2018-09-29T08:55:47.302Z,102559.58
2018-09-29T08:58:16.525Z,102550.77
2018-09-29T09:00:45.938Z,102554.36
2018-09-29T09:03:15.756Z,102558.06
2018-09-29T09:05:45.192Z,102564.98
2018-09-29T09:08:15.329Z,102560.52
2018-09-29T09:10:44.818Z,102561.00
2018-09-29T09:13:14.280Z,102559.55
2018-09-29T09:15:44.170Z,102559.36
2018-09-29T09:18:13.630Z,102564.27
2018-09-29T09:20:42.921Z,102568.50
2018-09-29T09:23:12.233Z,102563.00
2018-09-29T09:25:41.966Z,102567.09
2018-09-29T09:28:11.392Z,102564.67
2018-09-29T09:30:40.987Z,102566.94
2018-09-29T09:33:10.624Z,102568.66
2018-09-29T09:35:40.147Z,102567.23
2018-09-29T09:38:09.615Z,102557.31
2018-09-29T09:40:39.205Z,102557.95
2018-09-29T09:43:08.665Z,102563.61
2018-09-29T09:45:38.189Z,102555.27
2018-09-29T09:48:07.669Z,102555.89
2018-09-29T09:50:36.796Z,102554.77
2018-09-29T09:53:06.326Z,102557.94
2018-09-29T09:55:35.800Z,102553.69
2018-09-29T09:58:05.389Z,102554.70
2018-09-29T10:00:40.965Z,102555.13
2018-09-29T10:03:16.121Z,102557.17
2018-09-29T10:05:45.677Z,102559.87
2018-09-29T10:08:15.235Z,102566.09
2018-09-29T10:10:44.831Z,102548.30
2018-09-29T10:13:16.331Z,102557.89
2018-09-29T10:15:45.971Z,102556.46
2018-09-29T10:18:15.466Z,102561.09
2018-09-29T10:20:44.870Z,102550.99
2018-09-29T10:23:14.161Z,102546.59
2018-09-29T10:25:43.785Z,102554.60
2018-09-29T10:28:13.147Z,102549.69
2018-09-29T10:30:42.103Z,102552.17
2018-09-29T10:33:10.892Z,102547.15
2018-09-29T10:35:40.375Z,102546.97
2018-09-29T10:38:09.438Z,102541.61
2018-09-29T10:40:39.091Z,102540.77
2018-09-29T10:43:08.069Z,102535.97
2018-09-29T10:45:37.064Z,102535.98
2018-09-29T10:48:05.832Z,102532.80
2018-09-29T10:50:34.694Z,102534.08
2018-09-29T10:53:04.342Z,102523.41
2018-09-29T10:55:33.681Z,102523.09
2018-09-29T10:58:02.337Z,102527.41
2018-09-29T11:00:31.555Z,102516.97
2018-09-29T11:03:01.145Z,102518.37
2018-09-29T11:05:29.846Z,102516.99
2018-09-29T11:08:00.208Z,102502.03
2018-09-29T11:10:29.592Z,102500.05
2018-09-29T11:12:58.389Z,102496.61
2018-09-29T11:15:27.362Z,102489.12
2018-09-29T11:17:56.315Z,102485.23
2018-09-29T11:20:25.217Z,102492.13
2018-09-29T11:22:54.110Z,102480.91
2018-09-29T11:25:22.954Z,102477.59
2018-09-29T11:27:51.949Z,102473.17
2018-09-29T11:30:20.910Z,102471.47
2018-09-29T11:32:49.636Z,102472.50
2018-09-29T11:35:18.804Z,102466.72
2018-09-29T11:37:47.955Z,102468.67
2018-09-29T11:40:16.910Z,102456.33
2018-09-29T11:42:45.733Z,102455.65
2018-09-29T11:45:14.589Z,102451.30
2018-09-29T11:47:43.378Z,102451.45
2018-09-29T11:50:12.117Z,102454.44
2018-09-29T11:52:41.369Z,102445.52
2018-09-29T11:55:10.188Z,102443.54
2018-09-29T11:57:39.065Z,102444.06
2018-09-29T12:00:08.259Z,102445.30
2018-09-29T12:02:36.938Z,102438.97
2018-09-29T12:05:06.828Z,102442.81
2018-09-29T12:07:38.260Z,102431.94
2018-09-29T12:10:07.733Z,102432.34
2018-09-29T12:12:36.530Z,102423.12
2018-09-29T12:15:05.422Z,102428.84
2018-09-29T12:17:34.154Z,102419.08
2018-09-29T12:20:02.879Z,102414.02
2018-09-29T12:22:31.618Z,102416.19
2018-09-29T12:25:00.573Z,102411.70
2018-09-29T12:27:29.511Z,102411.23
2018-09-29T12:29:58.376Z,102407.08
2018-09-29T12:32:27.249Z,102405.78
2018-09-29T12:34:56.117Z,102396.58
2018-09-29T12:37:25.406Z,102391.53
2018-09-29T12:39:54.315Z,102396.80
2018-09-29T12:42:23.139Z,102387.77
2018-09-29T12:44:52.214Z,102386.66
2018-09-29T12:47:21.254Z,102380.23
2018-09-29T12:49:49.877Z,102376.45
2018-09-29T12:52:18.693Z,102372.86
2018-09-29T12:54:47.705Z,102364.84
2018-09-29T12:57:16.492Z,102368.89
2018-09-29T12:59:45.319Z,102363.47
2018-09-29T13:02:14.205Z,102369.35
2018-09-29T13:04:43.233Z,102360.02
2018-09-29T13:07:12.232Z,102359.88
2018-09-29T13:09:41.194Z,102355.80
2018-09-29T13:12:10.031Z,102354.47
2018-09-29T13:14:39.109Z,102352.89
2018-09-29T13:17:07.893Z,102341.59
2018-09-29T13:19:36.700Z,102347.97
2018-09-29T13:22:05.715Z,102349.47
2018-09-29T13:24:34.487Z,102342.06
2018-09-29T13:27:03.657Z,102348.02
2018-09-29T13:29:33.367Z,102339.96
2018-09-29T13:32:03.176Z,102338.41
2018-09-29T13:34:31.952Z,102347.70
2018-09-29T13:37:00.923Z,102327.84
2018-09-29T13:39:29.734Z,102330.04
2018-09-29T13:41:58.538Z,102329.95
2018-09-29T13:44:27.238Z,102321.75
2018-09-29T13:46:55.994Z,102318.63
2018-09-29T13:49:24.777Z,102303.53
2018-09-29T13:51:53.836Z,102303.14
2018-09-29T13:54:22.431Z,102303.88
2018-09-29T13:56:51.344Z,102302.34
2018-09-29T13:59:20.248Z,102301.25
2018-09-29T14:01:49.242Z,102298.50
2018-09-29T14:04:18.178Z,102293.84
2018-09-29T14:06:46.935Z,102292.97
2018-09-29T14:09:15.774Z,102291.89
2018-09-29T14:11:44.654Z,102283.71
2018-09-29T14:14:13.575Z,102278.84
2018-09-29T14:16:42.420Z,102266.76
2018-09-29T14:19:11.380Z,102268.93
2018-09-29T14:21:40.174Z,102260.95
2018-09-29T14:24:08.856Z,102263.95
2018-09-29T14:26:37.631Z,102253.02
2018-09-29T14:29:06.728Z,102249.01
2018-09-29T14:31:35.676Z,102251.61
2018-09-29T14:34:04.499Z,102250.89
2018-09-29T14:36:33.619Z,102238.97
2018-09-29T14:39:02.367Z,102239.04
2018-09-29T14:41:31.107Z,102247.85
2018-09-29T14:43:59.935Z,102248.55
2018-09-29T14:46:28.795Z,102237.84
2018-09-29T14:48:57.856Z,102238.48
2018-09-29T14:51:27.036Z,102235.80
2018-09-29T14:53:55.840Z,102240.39
2018-09-29T14:56:24.754Z,102239.22
2018-09-29T14:58:53.510Z,102229.50
2018-09-29T15:01:22.507Z,102237.95
2018-09-29T15:03:51.409Z,102235.32
2018-09-29T15:06:20.294Z,102233.14
2018-09-29T15:08:49.946Z,102231.78
2018-09-29T15:11:18.900Z,102228.19
2018-09-29T15:13:47.873Z,102228.67
2018-09-29T15:16:16.679Z,102222.90
2018-09-29T15:18:45.811Z,102222.02
2018-09-29T15:21:14.865Z,102223.63
2018-09-29T15:23:44.106Z,102222.11
2018-09-29T15:26:12.912Z,102226.25
2018-09-29T15:28:41.628Z,102223.55
2018-09-29T15:31:10.358Z,102216.38
2018-09-29T15:33:39.176Z,102212.80
2018-09-29T15:36:07.947Z,102210.89
2018-09-29T15:38:37.285Z,102207.61
2018-09-29T15:41:06.305Z,102201.32
2018-09-29T15:43:35.470Z,102212.06
2018-09-29T15:46:04.599Z,102203.23
2018-09-29T15:48:33.619Z,102200.49
2018-09-29T15:51:02.381Z,102208.79
2018-09-29T15:53:31.171Z,102209.60
2018-09-29T15:56:00.574Z,102202.14
2018-09-29T15:58:30.138Z,102200.25
2018-09-29T16:00:59.526Z,102199.39
2018-09-29T16:03:28.844Z,102201.29
2018-09-29T16:05:58.368Z,102203.73
2018-09-29T16:08:27.907Z,102201.81
2018-09-29T16:10:57.355Z,102203.42
2018-09-29T16:13:26.510Z,102207.28
2018-09-29T16:15:55.995Z,102203.09
2018-09-29T16:18:25.444Z,102205.28
2018-09-29T16:20:55.012Z,102206.32
2018-09-29T16:23:24.481Z,102206.28
2018-09-29T16:25:54.004Z,102201.64
2018-09-29T16:28:23.575Z,102205.42
2018-09-29T16:30:53.335Z,102204.28
2018-09-29T16:33:22.770Z,102208.93
2018-09-29T16:35:52.164Z,102209.32
2018-09-29T16:38:21.703Z,102209.77
2018-09-29T16:40:51.187Z,102208.90
2018-09-29T16:43:20.696Z,102205.20
2018-09-29T16:45:50.390Z,102215.33
2018-09-29T16:48:19.793Z,102220.98
2018-09-29T16:50:49.256Z,102209.37
2018-09-29T16:53:18.740Z,102212.66
2018-09-29T16:55:48.365Z,102213.59
2018-09-29T16:58:17.937Z,102210.45
2018-09-29T17:00:47.298Z,102214.23
2018-09-29T17:03:16.862Z,102220.50
2018-09-29T17:05:46.287Z,102216.22
2018-09-29T17:08:15.681Z,102220.82
2018-09-29T17:10:45.377Z,102220.88
2018-09-29T17:13:14.932Z,102218.02
2018-09-29T17:15:44.527Z,102213.89
2018-09-29T17:18:14.123Z,102216.14
2018-09-29T17:20:43.725Z,102211.61
2018-09-29T17:23:13.249Z,102216.39
2018-09-29T17:25:42.930Z,102217.66
2018-09-29T17:28:12.428Z,102216.52
2018-09-29T17:30:41.959Z,102211.12
2018-09-29T17:33:11.645Z,102213.45
2018-09-29T17:35:41.153Z,102213.88
2018-09-29T17:38:10.644Z,102215.41
2018-09-29T17:40:40.211Z,102209.52
2018-09-29T17:43:09.665Z,102207.24
2018-09-29T17:45:39.282Z,102215.38
2018-09-29T17:48:08.849Z,102203.50
2018-09-29T17:50:38.202Z,102212.23
2018-09-29T17:53:07.798Z,102210.95
2018-09-29T17:55:37.412Z,102206.28
2018-09-29T17:58:06.819Z,102206.58
2018-09-29T18:00:36.340Z,102200.08
2018-09-29T18:03:05.924Z,102203.35
2018-09-29T18:05:35.521Z,102198.63
2018-09-29T18:08:04.991Z,102199.03
2018-09-29T18:10:34.558Z,102191.12
2018-09-29T18:13:04.024Z,102192.09
2018-09-29T18:15:33.557Z,102199.52
2018-09-29T18:18:03.049Z,102199.02
2018-09-29T18:20:33.208Z,102198.58
2018-09-29T18:23:02.787Z,102202.08
2018-09-29T18:25:32.329Z,102204.34
2018-09-29T18:28:02.104Z,102214.34
2018-09-29T18:30:34.460Z,102202.80
2018-09-29T18:33:04.682Z,102213.27
2018-09-29T18:35:34.728Z,102206.85
2018-09-29T18:38:06.359Z,102201.69
2018-09-29T18:40:36.400Z,102203.71
2018-09-29T18:43:05.996Z,102200.38
2018-09-29T18:45:35.627Z,102202.70
2018-09-29T18:48:05.172Z,102197.95
2018-09-29T18:50:34.760Z,102196.74
2018-09-29T18:53:04.306Z,102201.00
2018-09-29T18:55:34.181Z,102192.64
2018-09-29T18:58:03.822Z,102186.88
2018-09-29T19:00:33.489Z,102188.36
2018-09-29T19:03:03.160Z,102191.73
2018-09-29T19:05:32.553Z,102181.72
2018-09-29T19:08:02.039Z,102183.73
2018-09-29T19:10:33.028Z,102184.22
2018-09-29T19:13:02.374Z,102187.59
2018-09-29T19:15:32.038Z,102181.30
2018-09-29T19:18:02.567Z,102184.59
2018-09-29T19:20:32.066Z,102176.32
2018-09-29T19:23:01.552Z,102174.91
2018-09-29T19:25:30.908Z,102175.06
2018-09-29T19:28:00.735Z,102166.75
2018-09-29T19:30:30.928Z,102166.89
2018-09-29T19:34:03.196Z,102170.78
2018-09-29T19:36:32.600Z,102166.16
2018-09-29T19:39:02.050Z,102161.41
2018-09-29T19:41:31.594Z,102165.07
2018-09-29T19:44:01.066Z,102159.66
2018-09-29T19:46:30.788Z,102162.88
2018-09-29T19:49:01.306Z,102156.81
2018-09-29T19:51:30.999Z,102160.62
2018-09-29T19:54:00.733Z,102157.29
2018-09-29T19:56:30.535Z,102151.70
2018-09-29T19:59:00.144Z,102145.52
2018-09-29T20:01:29.657Z,102147.49
2018-09-29T20:03:59.328Z,102144.63
2018-09-29T20:06:29.145Z,102135.92
2018-09-29T20:08:58.580Z,102136.20
2018-09-29T20:11:28.096Z,102143.23
2018-09-29T20:13:57.473Z,102137.73
2018-09-29T20:16:26.929Z,102129.95
2018-09-29T20:18:57.143Z,102126.30
2018-09-29T20:21:26.506Z,102131.09
2018-09-29T20:23:56.007Z,102131.58
2018-09-29T20:26:25.525Z,102128.46
2018-09-29T20:28:55.042Z,102125.91
2018-09-29T20:31:24.425Z,102119.84
2018-09-29T20:33:53.467Z,102120.63
2018-09-29T20:36:22.331Z,102122.34
2018-09-29T20:38:51.644Z,102115.70
2018-09-29T20:41:20.444Z,102113.15
2018-09-29T20:43:49.207Z,102110.81
2018-09-29T20:46:18.019Z,102110.81
2018-09-29T20:48:47.306Z,102113.62
2018-09-29T20:51:16.542Z,102113.57
2018-09-29T20:53:45.394Z,102105.53
2018-09-29T20:56:17.014Z,102102.45
2018-09-29T20:58:46.131Z,102101.70
2018-09-29T21:01:14.988Z,102099.72
2018-09-29T21:03:43.939Z,102099.72
2018-09-29T21:06:13.042Z,102097.91
2018-09-29T21:08:41.909Z,102091.66
2018-09-29T21:11:10.734Z,102084.10
2018-09-29T21:13:39.915Z,102089.77
2018-09-29T21:16:09.190Z,102089.24
2018-09-29T21:18:37.770Z,102081.84
2018-09-29T21:21:06.576Z,102082.59
2018-09-29T21:23:35.466Z,102070.48
2018-09-29T21:26:04.246Z,102079.17
2018-09-29T21:28:34.117Z,102072.47
2018-09-29T21:31:03.117Z,102073.22
2018-09-29T21:33:31.755Z,102069.97
2018-09-29T21:36:00.823Z,102067.94
2018-09-29T21:38:29.607Z,102067.94
2018-09-29T21:40:58.326Z,102063.45
2018-09-29T21:43:27.186Z,102057.92
2018-09-29T21:45:56.389Z,102056.42
2018-09-29T21:48:25.289Z,102052.80
2018-09-29T21:50:54.080Z,102045.53
2018-09-29T21:53:22.757Z,102042.81
2018-09-29T21:55:51.551Z,102041.38
2018-09-29T21:58:20.363Z,102034.97
2018-09-29T22:00:50.344Z,102025.42
2018-09-29T22:03:19.367Z,102024.13
2018-09-29T22:05:48.040Z,102023.47
2018-09-29T22:08:16.993Z,102024.68
2018-09-29T22:10:45.951Z,102026.05
2018-09-29T22:13:14.671Z,102029.07
2018-09-29T22:15:43.474Z,102023.70
2018-09-29T22:18:12.462Z,102030.72
2018-09-29T22:20:41.362Z,102022.19
2018-09-29T22:23:10.459Z,102021.30
2018-09-29T22:25:39.375Z,102015.86
2018-09-29T22:28:08.163Z,102012.90
2018-09-29T22:30:36.864Z,102008.73
2018-09-29T22:33:05.711Z,102004.80
2018-09-29T22:35:34.519Z,101998.38
2018-09-29T22:38:03.486Z,101993.99
2018-09-29T22:40:32.239Z,101986.08
2018-09-29T22:43:01.244Z,101989.48
2018-09-29T22:45:30.680Z,101987.34
2018-09-29T22:47:59.440Z,101986.75
2018-09-29T22:50:29.160Z,101982.53
2018-09-29T22:52:58.501Z,101979.66
2018-09-29T22:55:27.299Z,101973.02
2018-09-29T22:58:02.168Z,101980.87
2018-09-29T23:01:33.496Z,101971.10
2018-09-29T23:04:03.584Z,101976.63
2018-09-29T23:06:32.897Z,101976.33
2018-09-29T23:09:01.774Z,101976.17
2018-09-29T23:11:30.592Z,101972.93
2018-09-29T23:13:59.466Z,101968.23
2018-09-29T23:16:28.439Z,101968.60
2018-09-29T23:18:57.206Z,101979.41
2018-09-29T23:21:25.934Z,101962.85
2018-09-29T23:23:55.032Z,101972.22
2018-09-29T23:26:23.945Z,101974.94
2018-09-29T23:28:55.981Z,101965.79
2018-09-29T23:31:25.294Z,101967.83
2018-09-29T23:33:54.151Z,101968.07
2018-09-29T23:36:23.257Z,101964.73
2018-09-29T23:38:52.046Z,101958.47
2018-09-29T23:41:20.751Z,101958.47
2018-09-29T23:43:49.920Z,101960.91
2018-09-29T23:46:18.812Z,101957.73
2018-09-29T23:48:47.698Z,101954.85
2018-09-29T23:51:16.860Z,101951.88
2018-09-29T23:53:45.962Z,101949.17
2018-09-29T23:56:15.302Z,101951.52
2018-09-29T23:58:44.752Z,101945.70
